sensor_id;sensor_type;location;lat;lon;timestamp;pressure;altitude;pressure_sealevel;temperature;humidity
44351;BME280;62766;62.622;17.912;2023-06-14T00:02:21;101755.86;;;14.57;59.50
44351;BME280;62766;62.622;17.912;2023-06-14T00:04:49;101760.40;;;14.47;59.62
44351;BME280;62766;62.622;17.912;2023-06-14T00:07:17;101765.57;;;14.56;59.46
44351;BME280;62766;62.622;17.912;2023-06-14T00:09:46;101768.55;;;14.55;59.04
44351;BME280;62766;62.622;17.912;2023-06-14T00:12:13;101773.30;;;14.49;59.15
44351;BME280;62766;62.622;17.912;2023-06-14T00:14:41;101774.91;;;14.33;58.87
44351;BME280;62766;62.622;17.912;2023-06-14T00:17:10;101772.63;;;14.30;59.47
44351;BME280;62766;62.622;17.912;2023-06-14T00:19:39;101775.98;;;14.24;59.60
44351;BME280;62766;62.622;17.912;2023-06-14T00:22:07;101776.90;;;14.25;59.56
44351;BME280;62766;62.622;17.912;2023-06-14T00:24:35;101779.36;;;14.16;60.32
44351;BME280;62766;62.622;17.912;2023-06-14T00:27:04;101778.06;;;14.38;60.03
44351;BME280;62766;62.622;17.912;2023-06-14T00:29:32;101778.57;;;14.26;61.08
44351;BME280;62766;62.622;17.912;2023-06-14T00:32:01;101778.78;;;14.24;60.95
44351;BME280;62766;62.622;17.912;2023-06-14T00:34:30;101781.48;;;14.28;61.00
44351;BME280;62766;62.622;17.912;2023-06-14T00:36:58;101782.23;;;14.34;61.50
44351;BME280;62766;62.622;17.912;2023-06-14T00:39:27;101784.84;;;14.43;61.50
44351;BME280;62766;62.622;17.912;2023-06-14T00:41:56;101786.42;;;14.32;61.73
44351;BME280;62766;62.622;17.912;2023-06-14T00:44:25;101790.19;;;14.35;60.84
44351;BME280;62766;62.622;17.912;2023-06-14T00:46:53;101793.10;;;14.22;60.42
44351;BME280;62766;62.622;17.912;2023-06-14T00:49:22;101794.61;;;14.42;59.99
44351;BME280;62766;62.622;17.912;2023-06-14T00:51:50;101793.90;;;14.23;59.50
44351;BME280;62766;62.622;17.912;2023-06-14T00:54:19;101795.01;;;14.10;59.30
44351;BME280;62766;62.622;17.912;2023-06-14T00:56:47;101794.64;;;14.22;58.90
44351;BME280;62766;62.622;17.912;2023-06-14T00:59:15;101796.77;;;14.22;59.02
44351;BME280;62766;62.622;17.912;2023-06-14T01:01:44;101796.21;;;14.17;58.90
44351;BME280;62766;62.622;17.912;2023-06-14T01:04:12;101798.19;;;14.03;58.72
44351;BME280;62766;62.622;17.912;2023-06-14T01:06:45;101799.16;;;14.20;59.43
44351;BME280;62766;62.622;17.912;2023-06-14T01:09:25;101798.73;;;13.97;59.81
44351;BME280;62766;62.622;17.912;2023-06-14T01:12:13;101803.66;;;14.12;59.65
44351;BME280;62766;62.622;17.912;2023-06-14T01:14:44;101803.98;;;14.21;60.19
44351;BME280;62766;62.622;17.912;2023-06-14T01:17:12;101801.97;;;14.15;60.06
44351;BME280;62766;62.622;17.912;2023-06-14T01:19:41;101804.97;;;14.25;59.55
44351;BME280;62766;62.622;17.912;2023-06-14T01:22:09;101808.15;;;14.18;59.09
44351;BME280;62766;62.622;17.912;2023-06-14T01:24:37;101807.67;;;14.13;59.74
44351;BME280;62766;62.622;17.912;2023-06-14T01:27:07;101809.54;;;14.20;60.05
44351;BME280;62766;62.622;17.912;2023-06-14T01:29:35;101809.41;;;14.07;60.06
44351;BME280;62766;62.622;17.912;2023-06-14T01:32:05;101807.22;;;14.07;60.28
44351;BME280;62766;62.622;17.912;2023-06-14T01:34:34;101811.06;;;13.92;60.06
44351;BME280;62766;62.622;17.912;2023-06-14T01:37:03;101811.95;;;14.02;60.13
44351;BME280;62766;62.622;17.912;2023-06-14T01:39:32;101809.04;;;14.00;60.18
44351;BME280;62766;62.622;17.912;2023-06-14T01:42:01;101808.16;;;13.93;60.31
44351;BME280;62766;62.622;17.912;2023-06-14T01:44:30;101807.88;;;13.91;60.75
44351;BME280;62766;62.622;17.912;2023-06-14T01:47:00;101804.02;;;13.89;61.26
44351;BME280;62766;62.622;17.912;2023-06-14T01:49:28;101804.76;;;13.82;61.12
44351;BME280;62766;62.622;17.912;2023-06-14T01:51:57;101803.08;;;13.87;60.97
44351;BME280;62766;62.622;17.912;2023-06-14T01:54:26;101801.11;;;13.93;61.22
44351;BME280;62766;62.622;17.912;2023-06-14T01:56:55;101801.39;;;13.94;61.28
44351;BME280;62766;62.622;17.912;2023-06-14T01:59:25;101801.11;;;13.83;60.64
44351;BME280;62766;62.622;17.912;2023-06-14T02:01:53;101802.14;;;13.89;60.50
44351;BME280;62766;62.622;17.912;2023-06-14T02:04:21;101804.49;;;13.94;60.50
44351;BME280;62766;62.622;17.912;2023-06-14T02:06:51;101803.07;;;13.93;60.48
44351;BME280;62766;62.622;17.912;2023-06-14T02:09:20;101804.80;;;13.90;60.40
44351;BME280;62766;62.622;17.912;2023-06-14T02:11:48;101806.76;;;13.86;60.54
44351;BME280;62766;62.622;17.912;2023-06-14T02:14:16;101808.05;;;13.96;60.83
44351;BME280;62766;62.622;17.912;2023-06-14T02:16:45;101803.12;;;13.94;60.97
44351;BME280;62766;62.622;17.912;2023-06-14T02:19:12;101800.09;;;13.95;60.70
44351;BME280;62766;62.622;17.912;2023-06-14T02:21:41;101799.70;;;13.95;60.95
44351;BME280;62766;62.622;17.912;2023-06-14T02:24:09;101800.33;;;13.97;61.23
44351;BME280;62766;62.622;17.912;2023-06-14T02:26:38;101801.90;;;13.87;61.26
44351;BME280;62766;62.622;17.912;2023-06-14T02:29:07;101803.64;;;13.87;61.12
44351;BME280;62766;62.622;17.912;2023-06-14T02:31:36;101801.73;;;13.89;60.90
44351;BME280;62766;62.622;17.912;2023-06-14T02:34:04;101802.05;;;14.00;60.75
44351;BME280;62766;62.622;17.912;2023-06-14T02:36:33;101800.53;;;13.89;60.74
44351;BME280;62766;62.622;17.912;2023-06-14T02:39:02;101804.28;;;13.90;60.76
44351;BME280;62766;62.622;17.912;2023-06-14T02:41:31;101801.78;;;14.02;60.38
44351;BME280;62766;62.622;17.912;2023-06-14T02:44:00;101801.46;;;14.09;60.31
44351;BME280;62766;62.622;17.912;2023-06-14T02:46:28;101802.85;;;14.13;60.15
44351;BME280;62766;62.622;17.912;2023-06-14T02:48:57;101805.08;;;14.16;60.60
44351;BME280;62766;62.622;17.912;2023-06-14T02:51:25;101806.14;;;14.11;60.56
44351;BME280;62766;62.622;17.912;2023-06-14T02:53:54;101804.15;;;14.27;60.32
44351;BME280;62766;62.622;17.912;2023-06-14T02:56:24;101806.54;;;14.31;59.85
44351;BME280;62766;62.622;17.912;2023-06-14T02:58:52;101808.59;;;14.36;59.51
44351;BME280;62766;62.622;17.912;2023-06-14T03:01:19;101811.57;;;14.50;59.65
44351;BME280;62766;62.622;17.912;2023-06-14T03:03:48;101812.37;;;14.47;59.61
44351;BME280;62766;62.622;17.912;2023-06-14T03:06:17;101813.11;;;14.48;59.52
44351;BME280;62766;62.622;17.912;2023-06-14T03:08:45;101815.55;;;14.54;59.28
44351;BME280;62766;62.622;17.912;2023-06-14T03:11:14;101822.18;;;14.77;58.79
44351;BME280;62766;62.622;17.912;2023-06-14T03:13:43;101820.26;;;14.82;58.34
44351;BME280;62766;62.622;17.912;2023-06-14T03:16:11;101819.49;;;14.82;57.99
44351;BME280;62766;62.622;17.912;2023-06-14T03:18:39;101820.05;;;14.90;57.76
44351;BME280;62766;62.622;17.912;2023-06-14T03:21:08;101820.65;;;15.05;57.36
44351;BME280;62766;62.622;17.912;2023-06-14T03:23:36;101820.37;;;15.07;57.27
44351;BME280;62766;62.622;17.912;2023-06-14T03:26:05;101824.00;;;15.11;56.98
44351;BME280;62766;62.622;17.912;2023-06-14T03:28:33;101823.94;;;15.41;56.56
44351;BME280;62766;62.622;17.912;2023-06-14T03:31:01;101821.60;;;15.36;56.40
44351;BME280;62766;62.622;17.912;2023-06-14T03:33:30;101822.02;;;15.55;56.01
44351;BME280;62766;62.622;17.912;2023-06-14T03:35:58;101824.60;;;15.57;55.73
44351;BME280;62766;62.622;17.912;2023-06-14T03:38:27;101826.20;;;15.76;55.74
44351;BME280;62766;62.622;17.912;2023-06-14T03:40:56;101827.81;;;15.64;55.68
44351;BME280;62766;62.622;17.912;2023-06-14T03:43:25;101828.67;;;15.92;55.14
44351;BME280;62766;62.622;17.912;2023-06-14T03:45:54;101828.45;;;15.98;54.48
44351;BME280;62766;62.622;17.912;2023-06-14T03:48:23;101832.94;;;16.09;54.66
44351;BME280;62766;62.622;17.912;2023-06-14T03:50:53;101834.18;;;16.23;54.59
44351;BME280;62766;62.622;17.912;2023-06-14T03:53:21;101833.36;;;16.21;54.51
44351;BME280;62766;62.622;17.912;2023-06-14T03:55:50;101835.09;;;16.36;54.28
44351;BME280;62766;62.622;17.912;2023-06-14T03:58:19;101836.78;;;16.50;53.96
44351;BME280;62766;62.622;17.912;2023-06-14T04:03:32;101832.75;;;16.46;53.57
44351;BME280;62766;62.622;17.912;2023-06-14T04:06:01;101827.32;;;16.71;53.84
44351;BME280;62766;62.622;17.912;2023-06-14T04:08:30;101830.39;;;16.86;53.88
44351;BME280;62766;62.622;17.912;2023-06-14T04:10:59;101830.53;;;16.88;54.25
44351;BME280;62766;62.622;17.912;2023-06-14T04:13:27;101829.26;;;16.94;54.00
44351;BME280;62766;62.622;17.912;2023-06-14T04:15:55;101825.16;;;16.96;53.69
44351;BME280;62766;62.622;17.912;2023-06-14T04:18:24;101824.63;;;17.21;53.05
44351;BME280;62766;62.622;17.912;2023-06-14T04:20:54;101825.83;;;17.12;53.21
44351;BME280;62766;62.622;17.912;2023-06-14T04:23:22;101827.60;;;17.32;53.24
44351;BME280;62766;62.622;17.912;2023-06-14T04:25:51;101826.56;;;17.18;52.96
44351;BME280;62766;62.622;17.912;2023-06-14T04:28:19;101827.64;;;17.34;52.73
44351;BME280;62766;62.622;17.912;2023-06-14T04:30:48;101825.46;;;17.39;52.39
44351;BME280;62766;62.622;17.912;2023-06-14T04:33:17;101823.97;;;17.59;52.19
44351;BME280;62766;62.622;17.912;2023-06-14T04:35:46;101822.09;;;17.65;52.18
44351;BME280;62766;62.622;17.912;2023-06-14T04:38:14;101818.39;;;17.87;52.29
44351;BME280;62766;62.622;17.912;2023-06-14T04:40:43;101820.73;;;17.93;52.39
44351;BME280;62766;62.622;17.912;2023-06-14T04:43:11;101820.66;;;17.94;52.62
44351;BME280;62766;62.622;17.912;2023-06-14T04:45:39;101822.92;;;18.19;51.92
44351;BME280;62766;62.622;17.912;2023-06-14T04:48:08;101824.42;;;18.39;51.18
44351;BME280;62766;62.622;17.912;2023-06-14T04:50:36;101823.08;;;18.31;50.79
44351;BME280;62766;62.622;17.912;2023-06-14T04:53:05;101820.13;;;18.37;51.03
44351;BME280;62766;62.622;17.912;2023-06-14T04:55:35;101819.66;;;18.51;50.81
44351;BME280;62766;62.622;17.912;2023-06-14T04:58:04;101818.08;;;18.50;50.68
44351;BME280;62766;62.622;17.912;2023-06-14T05:00:32;101816.86;;;18.73;50.48
44351;BME280;62766;62.622;17.912;2023-06-14T05:03:00;101814.34;;;18.73;50.14
44351;BME280;62766;62.622;17.912;2023-06-14T05:05:30;101816.42;;;18.77;49.94
44351;BME280;62766;62.622;17.912;2023-06-14T05:07:58;101818.51;;;18.85;50.03
44351;BME280;62766;62.622;17.912;2023-06-14T05:10:28;101821.77;;;19.09;49.09
44351;BME280;62766;62.622;17.912;2023-06-14T05:12:56;101820.18;;;19.17;47.85
44351;BME280;62766;62.622;17.912;2023-06-14T05:15:24;101818.72;;;19.37;47.53
44351;BME280;62766;62.622;17.912;2023-06-14T05:17:53;101822.91;;;19.49;46.68
44351;BME280;62766;62.622;17.912;2023-06-14T05:20:22;101821.56;;;19.50;46.13
44351;BME280;62766;62.622;17.912;2023-06-14T05:22:52;101821.80;;;19.57;45.56
44351;BME280;62766;62.622;17.912;2023-06-14T05:25:21;101820.20;;;19.60;45.28
44351;BME280;62766;62.622;17.912;2023-06-14T05:27:49;101822.87;;;19.74;44.94
44351;BME280;62766;62.622;17.912;2023-06-14T05:30:17;101821.76;;;19.82;44.95
44351;BME280;62766;62.622;17.912;2023-06-14T05:32:45;101819.40;;;19.91;44.73
44351;BME280;62766;62.622;17.912;2023-06-14T05:35:13;101820.45;;;20.06;44.90
44351;BME280;62766;62.622;17.912;2023-06-14T05:37:43;101819.93;;;20.22;44.02
44351;BME280;62766;62.622;17.912;2023-06-14T05:40:11;101821.56;;;20.45;42.02
44351;BME280;62766;62.622;17.912;2023-06-14T05:42:40;101822.56;;;20.66;41.32
44351;BME280;62766;62.622;17.912;2023-06-14T05:45:09;101824.08;;;20.69;40.64
44351;BME280;62766;62.622;17.912;2023-06-14T05:47:37;101824.89;;;20.80;38.70
44351;BME280;62766;62.622;17.912;2023-06-14T05:50:06;101822.92;;;20.87;37.92
44351;BME280;62766;62.622;17.912;2023-06-14T05:52:34;101820.09;;;21.08;37.91
44351;BME280;62766;62.622;17.912;2023-06-14T05:55:02;101824.21;;;21.15;37.97
44351;BME280;62766;62.622;17.912;2023-06-14T05:57:32;101825.35;;;21.08;35.93
44351;BME280;62766;62.622;17.912;2023-06-14T06:00:00;101824.41;;;21.31;35.42
44351;BME280;62766;62.622;17.912;2023-06-14T06:02:29;101822.20;;;21.46;34.70
44351;BME280;62766;62.622;17.912;2023-06-14T06:04:58;101826.58;;;21.63;34.47
44351;BME280;62766;62.622;17.912;2023-06-14T06:07:26;101827.75;;;21.73;34.83
44351;BME280;62766;62.622;17.912;2023-06-14T06:09:54;101824.76;;;21.87;33.61
44351;BME280;62766;62.622;17.912;2023-06-14T06:12:22;101824.88;;;21.95;33.60
44351;BME280;62766;62.622;17.912;2023-06-14T06:14:50;101824.75;;;21.95;34.44
44351;BME280;62766;62.622;17.912;2023-06-14T06:17:19;101821.35;;;22.16;33.36
44351;BME280;62766;62.622;17.912;2023-06-14T06:19:47;101822.56;;;22.27;32.75
44351;BME280;62766;62.622;17.912;2023-06-14T06:22:15;101823.81;;;22.25;33.38
44351;BME280;62766;62.622;17.912;2023-06-14T06:24:44;101822.60;;;22.30;32.58
44351;BME280;62766;62.622;17.912;2023-06-14T06:27:12;101823.36;;;22.44;33.26
44351;BME280;62766;62.622;17.912;2023-06-14T06:29:41;101825.18;;;22.47;34.33
44351;BME280;62766;62.622;17.912;2023-06-14T06:32:10;101824.95;;;22.63;33.84
44351;BME280;62766;62.622;17.912;2023-06-14T06:34:38;101825.82;;;22.74;32.64
44351;BME280;62766;62.622;17.912;2023-06-14T06:37:07;101828.99;;;22.84;34.01
44351;BME280;62766;62.622;17.912;2023-06-14T06:39:36;101829.41;;;22.76;34.38
44351;BME280;62766;62.622;17.912;2023-06-14T06:42:05;101827.82;;;22.66;33.89
44351;BME280;62766;62.622;17.912;2023-06-14T06:44:33;101829.26;;;22.71;34.03
44351;BME280;62766;62.622;17.912;2023-06-14T06:47:02;101829.53;;;22.71;34.23
44351;BME280;62766;62.622;17.912;2023-06-14T06:49:30;101830.38;;;22.70;34.50
44351;BME280;62766;62.622;17.912;2023-06-14T06:52:01;101829.96;;;22.74;34.52
44351;BME280;62766;62.622;17.912;2023-06-14T06:54:31;101834.40;;;22.83;34.62
44351;BME280;62766;62.622;17.912;2023-06-14T06:57:00;101835.50;;;22.74;33.44
44351;BME280;62766;62.622;17.912;2023-06-14T06:59:29;101839.27;;;22.70;33.37
44351;BME280;62766;62.622;17.912;2023-06-14T07:01:57;101839.03;;;22.74;33.94
44351;BME280;62766;62.622;17.912;2023-06-14T07:04:26;101838.43;;;22.95;33.80
44351;BME280;62766;62.622;17.912;2023-06-14T07:06:54;101842.30;;;22.89;33.84
44351;BME280;62766;62.622;17.912;2023-06-14T07:09:22;101844.11;;;23.08;33.50
44351;BME280;62766;62.622;17.912;2023-06-14T07:11:50;101842.46;;;23.19;33.24
44351;BME280;62766;62.622;17.912;2023-06-14T07:14:18;101844.44;;;23.31;33.15
44351;BME280;62766;62.622;17.912;2023-06-14T07:16:46;101842.55;;;23.24;32.52
44351;BME280;62766;62.622;17.912;2023-06-14T07:19:15;101841.45;;;23.25;32.84
44351;BME280;62766;62.622;17.912;2023-06-14T07:21:43;101845.36;;;23.41;32.17
44351;BME280;62766;62.622;17.912;2023-06-14T07:24:11;101844.31;;;23.43;31.57
44351;BME280;62766;62.622;17.912;2023-06-14T07:26:39;101840.17;;;23.45;31.29
44351;BME280;62766;62.622;17.912;2023-06-14T07:29:07;101843.57;;;23.57;31.80
44351;BME280;62766;62.622;17.912;2023-06-14T07:31:35;101842.57;;;23.70;32.09
44351;BME280;62766;62.622;17.912;2023-06-14T07:34:04;101843.32;;;23.61;32.84
44351;BME280;62766;62.622;17.912;2023-06-14T07:36:32;101841.27;;;23.77;32.53
44351;BME280;62766;62.622;17.912;2023-06-14T07:39:00;101837.58;;;23.87;32.12
44351;BME280;62766;62.622;17.912;2023-06-14T07:41:28;101834.03;;;23.90;31.40
44351;BME280;62766;62.622;17.912;2023-06-14T07:43:57;101833.28;;;23.91;31.48
44351;BME280;62766;62.622;17.912;2023-06-14T07:46:26;101835.06;;;24.04;31.88
44351;BME280;62766;62.622;17.912;2023-06-14T07:48:54;101836.50;;;23.97;31.10
44351;BME280;62766;62.622;17.912;2023-06-14T07:51:22;101834.59;;;24.15;30.58
44351;BME280;62766;62.622;17.912;2023-06-14T07:53:50;101837.38;;;24.29;29.82
44351;BME280;62766;62.622;17.912;2023-06-14T07:56:19;101837.34;;;24.24;29.68
44351;BME280;62766;62.622;17.912;2023-06-14T07:58:47;101836.12;;;24.48;29.97
44351;BME280;62766;62.622;17.912;2023-06-14T08:01:15;101835.03;;;24.52;29.00
44351;BME280;62766;62.622;17.912;2023-06-14T08:03:43;101834.10;;;24.63;28.03
44351;BME280;62766;62.622;17.912;2023-06-14T08:06:11;101832.32;;;24.59;29.02
44351;BME280;62766;62.622;17.912;2023-06-14T08:08:39;101833.24;;;24.77;29.46
44351;BME280;62766;62.622;17.912;2023-06-14T08:11:09;101831.98;;;24.73;29.40
44351;BME280;62766;62.622;17.912;2023-06-14T08:13:37;101832.76;;;24.86;29.21
44351;BME280;62766;62.622;17.912;2023-06-14T08:16:05;101831.36;;;24.92;28.19
44351;BME280;62766;62.622;17.912;2023-06-14T08:18:33;101830.73;;;24.96;28.60
44351;BME280;62766;62.622;17.912;2023-06-14T08:21:01;101835.00;;;25.19;28.78
44351;BME280;62766;62.622;17.912;2023-06-14T08:23:30;101834.76;;;25.12;29.64
44351;BME280;62766;62.622;17.912;2023-06-14T08:25:58;101834.74;;;25.12;29.52
44351;BME280;62766;62.622;17.912;2023-06-14T08:28:26;101829.44;;;25.19;29.79
44351;BME280;62766;62.622;17.912;2023-06-14T08:30:54;101829.53;;;25.29;29.97
44351;BME280;62766;62.622;17.912;2023-06-14T08:33:22;101831.00;;;25.31;30.09
44351;BME280;62766;62.622;17.912;2023-06-14T08:35:51;101834.88;;;25.52;30.62
44351;BME280;62766;62.622;17.912;2023-06-14T08:38:19;101836.04;;;25.36;29.61
44351;BME280;62766;62.622;17.912;2023-06-14T08:40:50;101839.05;;;25.15;29.39
44351;BME280;62766;62.622;17.912;2023-06-14T08:43:20;101834.32;;;25.24;29.26
44351;BME280;62766;62.622;17.912;2023-06-14T08:45:53;101833.45;;;25.33;29.43
44351;BME280;62766;62.622;17.912;2023-06-14T08:48:23;101833.85;;;25.34;28.55
44351;BME280;62766;62.622;17.912;2023-06-14T08:50:54;101836.84;;;25.36;28.99
44351;BME280;62766;62.622;17.912;2023-06-14T08:53:23;101834.41;;;25.20;29.44
44351;BME280;62766;62.622;17.912;2023-06-14T08:55:53;101830.45;;;25.23;29.18
44351;BME280;62766;62.622;17.912;2023-06-14T08:58:21;101828.16;;;25.31;28.01
44351;BME280;62766;62.622;17.912;2023-06-14T09:00:49;101825.48;;;25.22;27.54
44351;BME280;62766;62.622;17.912;2023-06-14T09:03:17;101823.45;;;25.42;26.47
44351;BME280;62766;62.622;17.912;2023-06-14T09:05:45;101825.62;;;25.19;27.31
44351;BME280;62766;62.622;17.912;2023-06-14T09:08:13;101824.42;;;25.11;27.80
44351;BME280;62766;62.622;17.912;2023-06-14T09:10:41;101823.68;;;25.28;26.94
44351;BME280;62766;62.622;17.912;2023-06-14T09:13:09;101824.98;;;25.23;26.56
44351;BME280;62766;62.622;17.912;2023-06-14T09:15:37;101831.39;;;25.05;26.78
44351;BME280;62766;62.622;17.912;2023-06-14T09:18:05;101832.25;;;25.11;27.20
44351;BME280;62766;62.622;17.912;2023-06-14T09:20:33;101830.63;;;25.28;26.63
44351;BME280;62766;62.622;17.912;2023-06-14T09:23:04;101830.54;;;25.32;26.94
44351;BME280;62766;62.622;17.912;2023-06-14T09:25:41;101830.88;;;25.30;26.75
44351;BME280;62766;62.622;17.912;2023-06-14T09:28:10;101822.98;;;25.35;26.75
44351;BME280;62766;62.622;17.912;2023-06-14T09:30:38;101821.67;;;25.22;26.61
44351;BME280;62766;62.622;17.912;2023-06-14T09:33:06;101827.14;;;25.27;26.90
44351;BME280;62766;62.622;17.912;2023-06-14T09:35:34;101823.51;;;25.19;27.17
44351;BME280;62766;62.622;17.912;2023-06-14T09:38:02;101824.16;;;25.34;27.12
44351;BME280;62766;62.622;17.912;2023-06-14T09:40:34;101823.03;;;25.38;26.36
44351;BME280;62766;62.622;17.912;2023-06-14T09:43:04;101821.21;;;25.63;26.87
44351;BME280;62766;62.622;17.912;2023-06-14T09:45:34;101819.33;;;25.58;26.55
44351;BME280;62766;62.622;17.912;2023-06-14T09:48:03;101822.52;;;25.65;25.73
44351;BME280;62766;62.622;17.912;2023-06-14T09:50:32;101822.09;;;25.72;25.91
44351;BME280;62766;62.622;17.912;2023-06-14T09:53:03;101821.01;;;25.71;26.48
44351;BME280;62766;62.622;17.912;2023-06-14T09:55:36;101818.70;;;25.80;26.25
44351;BME280;62766;62.622;17.912;2023-06-14T09:58:06;101814.92;;;25.86;25.81
44351;BME280;62766;62.622;17.912;2023-06-14T10:03:21;101804.62;;;25.92;25.64
44351;BME280;62766;62.622;17.912;2023-06-14T10:05:52;101812.02;;;26.02;26.78
44351;BME280;62766;62.622;17.912;2023-06-14T10:08:24;101812.02;;;26.13;26.65
44351;BME280;62766;62.622;17.912;2023-06-14T10:10:55;101812.63;;;26.11;27.05
44351;BME280;62766;62.622;17.912;2023-06-14T10:13:26;101813.68;;;26.24;26.35
44351;BME280;62766;62.622;17.912;2023-06-14T10:16:02;101811.19;;;26.27;25.52
44351;BME280;62766;62.622;17.912;2023-06-14T10:18:40;101805.63;;;26.20;26.26
44351;BME280;62766;62.622;17.912;2023-06-14T10:21:18;101803.78;;;26.16;25.98
44351;BME280;62766;62.622;17.912;2023-06-14T10:23:50;101808.03;;;26.15;25.58
44351;BME280;62766;62.622;17.912;2023-06-14T10:26:21;101804.94;;;26.14;25.41
44351;BME280;62766;62.622;17.912;2023-06-14T10:28:57;101805.08;;;26.34;24.93
44351;BME280;62766;62.622;17.912;2023-06-14T10:31:41;101807.71;;;26.18;24.63
44351;BME280;62766;62.622;17.912;2023-06-14T10:34:11;101804.94;;;26.11;24.76
44351;BME280;62766;62.622;17.912;2023-06-14T10:36:42;101801.96;;;25.97;24.12
44351;BME280;62766;62.622;17.912;2023-06-14T10:39:16;101799.94;;;25.90;25.10
44351;BME280;62766;62.622;17.912;2023-06-14T10:41:54;101794.60;;;25.88;25.46
44351;BME280;62766;62.622;17.912;2023-06-14T10:44:39;101794.62;;;25.80;25.24
44351;BME280;62766;62.622;17.912;2023-06-14T10:47:11;101799.39;;;25.93;25.59
44351;BME280;62766;62.622;17.912;2023-06-14T10:49:41;101797.54;;;25.97;25.02
44351;BME280;62766;62.622;17.912;2023-06-14T10:52:12;101796.84;;;25.87;25.03
44351;BME280;62766;62.622;17.912;2023-06-14T10:54:55;101797.81;;;26.08;25.30
44351;BME280;62766;62.622;17.912;2023-06-14T10:57:24;101801.60;;;25.95;25.35
44351;BME280;62766;62.622;17.912;2023-06-14T10:59:52;101802.33;;;26.08;25.20
44351;BME280;62766;62.622;17.912;2023-06-14T11:02:45;101799.84;;;25.88;24.86
44351;BME280;62766;62.622;17.912;2023-06-14T11:05:23;101798.00;;;25.79;24.90
44351;BME280;62766;62.622;17.912;2023-06-14T11:10:44;101796.47;;;25.57;24.85
44351;BME280;62766;62.622;17.912;2023-06-14T11:13:12;101793.29;;;25.68;25.00
44351;BME280;62766;62.622;17.912;2023-06-14T11:15:44;101788.24;;;25.66;25.29
44351;BME280;62766;62.622;17.912;2023-06-14T11:18:14;101791.53;;;25.91;25.23
44351;BME280;62766;62.622;17.912;2023-06-14T11:20:46;101790.13;;;25.82;25.03
44351;BME280;62766;62.622;17.912;2023-06-14T11:23:14;101787.15;;;25.72;25.07
44351;BME280;62766;62.622;17.912;2023-06-14T11:25:43;101787.74;;;25.89;25.23
44351;BME280;62766;62.622;17.912;2023-06-14T11:28:12;101789.99;;;25.97;25.05
44351;BME280;62766;62.622;17.912;2023-06-14T11:30:41;101786.85;;;25.97;25.14
44351;BME280;62766;62.622;17.912;2023-06-14T11:33:11;101787.14;;;25.90;25.26
44351;BME280;62766;62.622;17.912;2023-06-14T11:35:39;101786.64;;;26.09;25.24
44351;BME280;62766;62.622;17.912;2023-06-14T11:38:07;101781.99;;;26.09;24.85
44351;BME280;62766;62.622;17.912;2023-06-14T11:40:37;101781.85;;;26.23;25.11
44351;BME280;62766;62.622;17.912;2023-06-14T11:43:06;101779.92;;;26.42;24.94
44351;BME280;62766;62.622;17.912;2023-06-14T11:45:35;101778.50;;;26.42;25.32
44351;BME280;62766;62.622;17.912;2023-06-14T11:48:06;101785.06;;;26.48;24.56
44351;BME280;62766;62.622;17.912;2023-06-14T11:50:37;101778.89;;;26.46;24.74
44351;BME280;62766;62.622;17.912;2023-06-14T11:53:06;101777.78;;;26.52;24.33
44351;BME280;62766;62.622;17.912;2023-06-14T11:55:36;101780.22;;;26.29;24.44
44351;BME280;62766;62.622;17.912;2023-06-14T11:58:04;101777.08;;;26.18;24.73
44351;BME280;62766;62.622;17.912;2023-06-14T12:00:32;101773.29;;;26.32;24.74
44351;BME280;62766;62.622;17.912;2023-06-14T12:03:00;101774.74;;;26.40;24.76
44351;BME280;62766;62.622;17.912;2023-06-14T12:05:28;101775.04;;;26.44;24.60
44351;BME280;62766;62.622;17.912;2023-06-14T12:07:58;101775.13;;;26.55;25.11
44351;BME280;62766;62.622;17.912;2023-06-14T12:10:27;101773.29;;;26.65;24.38
44351;BME280;62766;62.622;17.912;2023-06-14T12:12:57;101772.15;;;26.78;24.56
44351;BME280;62766;62.622;17.912;2023-06-14T12:15:28;101772.85;;;26.80;24.69
44351;BME280;62766;62.622;17.912;2023-06-14T12:17:58;101771.23;;;26.72;23.98
44351;BME280;62766;62.622;17.912;2023-06-14T12:20:29;101768.38;;;26.75;24.12
44351;BME280;62766;62.622;17.912;2023-06-14T12:22:59;101765.44;;;26.89;23.74
44351;BME280;62766;62.622;17.912;2023-06-14T12:25:29;101761.03;;;27.00;23.96
44351;BME280;62766;62.622;17.912;2023-06-14T12:28:00;101762.16;;;27.08;23.55
44351;BME280;62766;62.622;17.912;2023-06-14T12:30:31;101761.61;;;26.97;23.63
44351;BME280;62766;62.622;17.912;2023-06-14T12:32:59;101760.90;;;26.98;23.47
44351;BME280;62766;62.622;17.912;2023-06-14T12:35:27;101758.31;;;27.22;23.55
44351;BME280;62766;62.622;17.912;2023-06-14T12:37:55;101760.44;;;27.36;23.06
44351;BME280;62766;62.622;17.912;2023-06-14T12:40:23;101760.57;;;27.55;22.99
44351;BME280;62766;62.622;17.912;2023-06-14T12:42:51;101757.74;;;27.42;23.03
44351;BME280;62766;62.622;17.912;2023-06-14T12:45:20;101754.65;;;27.42;22.66
44351;BME280;62766;62.622;17.912;2023-06-14T12:47:48;101751.36;;;27.51;22.88
44351;BME280;62766;62.622;17.912;2023-06-14T12:50:16;101750.10;;;27.45;23.55
44351;BME280;62766;62.622;17.912;2023-06-14T12:52:44;101749.57;;;27.66;23.36
44351;BME280;62766;62.622;17.912;2023-06-14T12:55:12;101745.28;;;27.69;22.96
44351;BME280;62766;62.622;17.912;2023-06-14T12:57:41;101746.33;;;27.62;22.90
44351;BME280;62766;62.622;17.912;2023-06-14T13:00:11;101749.29;;;27.45;23.08